createdAt,value
2019-02-03T00:00:59.926Z,4.04
2019-02-03T00:02:00.004Z,3.98
2019-02-03T00:03:00.092Z,4.00
2019-02-03T00:04:00.189Z,4.14
2019-02-03T00:05:00.337Z,4.14
2019-02-03T00:06:00.358Z,4.25
2019-02-03T00:07:03.461Z,4.22
2019-02-03T00:08:00.528Z,4.42
2019-02-03T00:09:00.613Z,4.39
2019-02-03T00:10:00.718Z,4.43
2019-02-03T00:11:00.793Z,4.40
2019-02-03T00:12:00.889Z,4.34
2019-02-03T00:13:00.970Z,4.25
2019-02-03T00:14:01.054Z,4.26
2019-02-03T00:15:01.142Z,4.26
2019-02-03T00:16:01.231Z,4.16
2019-02-03T00:17:01.326Z,4.22
2019-02-03T00:18:01.404Z,4.15
2019-02-03T00:19:01.491Z,4.25
2019-02-03T00:20:01.583Z,4.21
2019-02-03T00:21:01.685Z,4.26
2019-02-03T00:22:01.774Z,4.33
2019-02-03T00:23:01.850Z,4.26
2019-02-03T00:24:01.937Z,4.10
2019-02-03T00:25:02.025Z,4.12
2019-02-03T00:26:02.105Z,4.06
2019-02-03T00:27:02.197Z,4.06
2019-02-03T00:28:02.284Z,3.98
2019-02-03T00:29:02.371Z,3.79
2019-02-03T00:30:02.459Z,3.83
2019-02-03T00:31:02.545Z,3.86
2019-02-03T00:32:02.632Z,3.71
2019-02-03T00:33:02.726Z,3.53
2019-02-03T00:34:02.817Z,3.46
2019-02-03T00:35:02.898Z,3.43
2019-02-03T00:36:02.991Z,3.44
2019-02-03T00:37:14.770Z,3.40
2019-02-03T00:38:03.248Z,3.33
2019-02-03T00:39:03.251Z,3.33
2019-02-03T00:40:03.408Z,3.40
2019-02-03T00:41:03.472Z,3.44
2019-02-03T00:42:03.510Z,3.58
2019-02-03T00:43:03.603Z,3.42
2019-02-03T00:44:03.691Z,3.33
2019-02-03T00:45:03.777Z,3.27
2019-02-03T00:46:03.864Z,3.27
2019-02-03T00:47:03.951Z,3.28
2019-02-03T00:48:04.042Z,3.40
2019-02-03T00:49:04.133Z,3.27
2019-02-03T00:50:04.215Z,3.31
2019-02-03T00:51:04.303Z,3.47
2019-02-03T00:52:04.386Z,3.49
2019-02-03T00:53:04.475Z,3.64
2019-02-03T00:54:04.563Z,3.61
2019-02-03T00:55:04.648Z,3.34
2019-02-03T00:56:04.738Z,3.30
2019-02-03T00:57:04.818Z,3.33
2019-02-03T00:58:04.894Z,3.33
2019-02-03T00:59:04.997Z,3.30
2019-02-03T01:00:05.084Z,3.31
2019-02-03T01:01:05.161Z,3.25
2019-02-03T01:02:05.261Z,3.39
2019-02-03T01:03:05.346Z,3.46
2019-02-03T01:04:05.450Z,3.60
2019-02-03T01:05:05.535Z,3.47
2019-02-03T01:06:05.632Z,3.64
2019-02-03T01:07:05.712Z,3.67
2019-02-03T01:08:05.802Z,3.70
2019-02-03T01:09:05.886Z,3.57
2019-02-03T01:10:05.982Z,3.52
2019-02-03T01:11:06.060Z,3.79
2019-02-03T01:12:06.147Z,3.64
2019-02-03T01:13:06.240Z,3.58
2019-02-03T01:14:06.325Z,3.61
2019-02-03T01:15:06.411Z,3.61
2019-02-03T01:16:06.498Z,3.76
2019-02-03T01:17:06.592Z,3.83
2019-02-03T01:18:06.679Z,3.88
2019-02-03T01:19:06.765Z,3.96
2019-02-03T01:20:06.856Z,3.85
2019-02-03T01:21:06.942Z,3.82
2019-02-03T01:22:07.030Z,3.83
2019-02-03T01:23:07.127Z,3.94
2019-02-03T01:24:07.202Z,3.92
2019-02-03T01:25:07.287Z,3.88
2019-02-03T01:26:07.372Z,3.89
2019-02-03T01:27:07.464Z,3.96
2019-02-03T01:28:07.549Z,3.94
2019-02-03T01:29:07.638Z,4.04
2019-02-03T01:30:07.737Z,3.89
2019-02-03T01:31:07.816Z,3.85
2019-02-03T01:32:07.902Z,4.00
2019-02-03T01:33:07.988Z,3.97
2019-02-03T01:34:08.077Z,3.94
2019-02-03T01:35:08.163Z,3.80
2019-02-03T01:36:08.250Z,3.76
2019-02-03T01:37:08.341Z,3.70
2019-02-03T01:38:08.426Z,3.92
2019-02-03T01:39:08.514Z,3.88
2019-02-03T01:40:08.602Z,3.98
2019-02-03T01:41:08.687Z,3.98
2019-02-03T01:42:08.773Z,3.88
2019-02-03T01:43:08.858Z,4.01
2019-02-03T01:44:08.945Z,3.96
2019-02-03T01:45:09.029Z,3.89
2019-02-03T01:46:09.121Z,3.96
2019-02-03T01:47:09.205Z,3.98
2019-02-03T01:48:09.290Z,4.01
2019-02-03T01:49:09.376Z,3.82
2019-02-03T01:50:09.471Z,3.97
2019-02-03T01:51:09.557Z,3.92
2019-02-03T01:52:09.647Z,4.04
2019-02-03T01:53:09.731Z,3.90
2019-02-03T01:54:09.821Z,3.70
2019-02-03T01:55:09.910Z,3.62
2019-02-03T01:56:09.989Z,3.78
2019-02-03T01:57:10.084Z,3.64
2019-02-03T01:58:10.181Z,3.61
2019-02-03T01:59:10.273Z,3.36
2019-02-03T02:00:10.357Z,3.30
2019-02-03T02:01:10.446Z,3.39
2019-02-03T02:02:10.534Z,3.40
2019-02-03T02:03:10.629Z,3.33
2019-02-03T02:04:10.715Z,3.27
2019-02-03T02:05:10.911Z,3.30
2019-02-03T02:06:10.886Z,3.18
2019-02-03T02:07:10.971Z,3.07
2019-02-03T02:08:11.059Z,3.18
2019-02-03T02:09:11.146Z,3.16
2019-02-03T02:10:11.234Z,3.18
2019-02-03T02:11:11.322Z,3.18
2019-02-03T02:12:11.401Z,3.12
2019-02-03T02:13:11.486Z,3.02
2019-02-03T02:14:11.570Z,3.10
2019-02-03T02:15:11.656Z,3.24
2019-02-03T02:16:11.755Z,3.18
2019-02-03T02:17:11.835Z,3.21
2019-02-03T02:18:11.919Z,3.24
2019-02-03T02:19:12.003Z,3.30
2019-02-03T02:20:12.092Z,3.25
2019-02-03T02:21:12.180Z,3.30
2019-02-03T02:22:12.270Z,3.28
2019-02-03T02:23:12.353Z,3.34
2019-02-03T02:24:12.444Z,3.42
2019-02-03T02:25:12.536Z,3.07
2019-02-03T02:26:12.616Z,3.05
2019-02-03T02:27:12.704Z,3.09
2019-02-03T02:28:12.785Z,3.10
2019-02-03T02:29:12.874Z,3.05
2019-02-03T02:30:12.963Z,3.07
2019-02-03T02:31:13.049Z,3.15
2019-02-03T02:32:13.150Z,3.27
2019-02-03T02:33:13.231Z,3.39
2019-02-03T02:34:13.313Z,3.34
2019-02-03T02:35:13.410Z,3.42
2019-02-03T02:36:13.483Z,3.21
2019-02-03T02:37:13.569Z,3.33
2019-02-03T02:38:13.657Z,3.33
2019-02-03T02:39:13.741Z,3.47
2019-02-03T02:40:13.830Z,3.39
2019-02-03T02:41:13.924Z,3.39
2019-02-03T02:42:14.004Z,3.23
2019-02-03T02:43:14.090Z,3.27
2019-02-03T02:44:14.175Z,3.30
2019-02-03T02:45:14.258Z,3.20
2019-02-03T02:46:14.344Z,3.21
2019-02-03T02:47:14.430Z,3.34
2019-02-03T02:48:14.530Z,3.23
2019-02-03T02:49:14.615Z,3.27
2019-02-03T02:50:14.695Z,3.31
2019-02-03T02:51:14.792Z,3.36
2019-02-03T02:52:14.872Z,3.46
2019-02-03T02:53:14.958Z,3.52
2019-02-03T02:54:15.049Z,3.57
2019-02-03T02:55:15.289Z,3.60
2019-02-03T02:56:15.237Z,3.75
2019-02-03T02:57:15.326Z,3.68
2019-02-03T02:58:15.414Z,3.70
2019-02-03T02:59:15.506Z,3.62
2019-02-03T03:00:17.434Z,3.60
2019-02-03T03:01:15.674Z,3.54
2019-02-03T03:02:15.766Z,3.53
2019-02-03T03:03:15.857Z,3.58
2019-02-03T03:04:15.939Z,3.52
2019-02-03T03:05:16.026Z,3.52
2019-02-03T03:06:16.120Z,3.54
2019-02-03T03:07:16.199Z,3.47
2019-02-03T03:08:19.201Z,3.50
2019-02-03T03:09:16.372Z,3.60
2019-02-03T03:10:16.460Z,3.44
2019-02-03T03:11:16.545Z,3.44
2019-02-03T03:12:16.628Z,3.47
2019-02-03T03:13:16.708Z,3.44
2019-02-03T03:14:16.799Z,3.30
2019-02-03T03:15:16.883Z,3.30
2019-02-03T03:16:16.969Z,3.47
2019-02-03T03:17:17.057Z,3.40
2019-02-03T03:18:17.143Z,3.31
2019-02-03T03:19:17.235Z,3.39
2019-02-03T03:20:17.321Z,3.40
2019-02-03T03:21:17.408Z,3.49
2019-02-03T03:22:17.494Z,3.36
2019-02-03T03:23:17.587Z,3.44
2019-02-03T03:24:17.676Z,3.43
2019-02-03T03:25:17.759Z,3.57
2019-02-03T03:26:17.846Z,3.52
2019-02-03T03:27:17.935Z,3.57
2019-02-03T03:28:18.021Z,3.57
2019-02-03T03:29:18.108Z,3.61
2019-02-03T03:30:18.209Z,3.53
2019-02-03T03:31:18.310Z,3.44
2019-02-03T03:32:18.395Z,3.49
2019-02-03T03:33:18.483Z,3.47
2019-02-03T03:34:18.565Z,3.64
2019-02-03T03:35:18.655Z,3.43
2019-02-03T03:36:18.747Z,3.52
2019-02-03T03:37:18.834Z,3.53
2019-02-03T03:38:31.324Z,3.52
2019-02-03T03:39:19.003Z,3.31
2019-02-03T03:40:19.095Z,3.36
2019-02-03T03:41:19.185Z,3.28
2019-02-03T03:42:19.273Z,3.24
2019-02-03T03:43:19.359Z,3.31
2019-02-03T03:44:19.445Z,3.33
2019-02-03T03:45:19.533Z,3.33
2019-02-03T03:46:19.620Z,3.43
2019-02-03T03:47:19.710Z,3.53
2019-02-03T03:48:19.806Z,3.39
2019-02-03T03:49:19.885Z,3.44
2019-02-03T03:50:19.962Z,3.31
2019-02-03T03:51:20.049Z,3.28
2019-02-03T03:52:20.137Z,3.46
2019-02-03T03:53:20.221Z,3.39
2019-02-03T03:54:20.306Z,3.30
2019-02-03T03:55:20.393Z,3.25
2019-02-03T03:56:20.476Z,3.24
2019-02-03T03:57:20.563Z,3.28
2019-02-03T03:58:20.656Z,3.39
2019-02-03T03:59:20.740Z,3.36
2019-02-03T04:00:20.821Z,3.28
2019-02-03T04:01:20.912Z,3.43
2019-02-03T04:02:20.997Z,3.46
2019-02-03T04:03:21.086Z,3.39
2019-02-03T04:04:21.174Z,3.27
2019-02-03T04:05:21.261Z,3.42
2019-02-03T04:06:21.347Z,3.52
2019-02-03T04:07:21.438Z,3.52
2019-02-03T04:08:21.520Z,3.36
2019-02-03T04:09:21.596Z,3.46
2019-02-03T04:10:21.684Z,3.43
2019-02-03T04:11:21.772Z,3.39
2019-02-03T04:12:21.862Z,3.20
2019-02-03T04:13:21.947Z,3.09
2019-02-03T04:14:22.052Z,2.92
2019-02-03T04:15:22.106Z,3.02
2019-02-03T04:16:22.193Z,3.15
2019-02-03T04:17:22.284Z,3.02
2019-02-03T04:18:22.367Z,3.20
2019-02-03T04:19:22.456Z,2.85
2019-02-03T04:20:22.545Z,3.06
2019-02-03T04:21:22.634Z,3.03
2019-02-03T04:22:22.719Z,3.18
2019-02-03T04:23:22.806Z,3.20
2019-02-03T04:24:22.905Z,3.28
2019-02-03T04:25:22.982Z,3.28
2019-02-03T04:26:23.072Z,3.36
2019-02-03T04:27:23.154Z,3.39
2019-02-03T04:28:23.241Z,3.36
2019-02-03T04:29:23.329Z,3.43
2019-02-03T04:30:23.417Z,3.43
2019-02-03T04:31:23.504Z,3.42
2019-02-03T04:32:23.594Z,3.40
2019-02-03T04:33:23.678Z,3.34
2019-02-03T04:34:23.765Z,3.25
2019-02-03T04:35:23.994Z,3.40
2019-02-03T04:36:23.937Z,3.34
2019-02-03T04:37:24.023Z,3.06
2019-02-03T04:38:24.115Z,3.10
2019-02-03T04:39:24.207Z,3.05
2019-02-03T04:40:24.294Z,3.05
2019-02-03T04:41:24.387Z,3.05
2019-02-03T04:42:24.477Z,2.88
2019-02-03T04:43:24.554Z,2.87
2019-02-03T04:44:24.646Z,3.00
2019-02-03T04:45:24.739Z,3.10
2019-02-03T04:46:24.818Z,3.20
2019-02-03T04:47:24.905Z,3.21
2019-02-03T04:48:24.995Z,3.20
2019-02-03T04:49:25.089Z,3.13
2019-02-03T04:50:25.162Z,3.09
2019-02-03T04:51:25.251Z,3.10
2019-02-03T04:52:25.334Z,3.12
2019-02-03T04:53:25.422Z,3.06
2019-02-03T04:54:25.506Z,2.94
2019-02-03T04:55:25.593Z,3.12
2019-02-03T04:56:25.679Z,3.10
2019-02-03T04:57:25.764Z,3.20
2019-02-03T04:58:25.869Z,3.12
2019-02-03T04:59:25.944Z,3.23
2019-02-03T05:00:26.026Z,3.24
2019-02-03T05:01:26.108Z,3.24
2019-02-03T05:02:26.192Z,3.12
2019-02-03T05:03:26.280Z,3.03
2019-02-03T05:04:26.376Z,2.98
2019-02-03T05:05:26.452Z,2.91
2019-02-03T05:06:26.541Z,2.94
2019-02-03T05:07:26.628Z,3.00
2019-02-03T05:08:26.710Z,3.03
2019-02-03T05:09:26.796Z,3.09
2019-02-03T05:10:26.882Z,3.06
2019-02-03T05:11:26.971Z,2.91
2019-02-03T05:12:27.056Z,2.81
2019-02-03T05:13:27.143Z,2.84
2019-02-03T05:14:27.239Z,2.95
2019-02-03T05:15:27.309Z,2.95
2019-02-03T05:16:27.411Z,2.84
2019-02-03T05:17:27.488Z,2.88
2019-02-03T05:18:27.574Z,2.94
2019-02-03T05:19:27.662Z,2.95
2019-02-03T05:20:27.747Z,3.09
2019-02-03T05:21:27.827Z,2.98
2019-02-03T05:22:27.919Z,2.79
2019-02-03T05:23:28.011Z,2.79
2019-02-03T05:24:28.102Z,2.81
2019-02-03T05:25:28.189Z,2.70
2019-02-03T05:26:28.291Z,2.85
2019-02-03T05:27:28.361Z,2.79
2019-02-03T05:28:28.434Z,2.85
2019-02-03T05:29:28.515Z,2.85
2019-02-03T05:30:28.600Z,2.84
2019-02-03T05:31:28.691Z,2.91
2019-02-03T05:32:28.780Z,2.79
2019-02-03T05:33:28.865Z,2.67
2019-02-03T05:34:28.957Z,2.76
2019-02-03T05:35:29.036Z,2.74
2019-02-03T05:36:29.131Z,2.84
2019-02-03T05:37:29.207Z,2.91
2019-02-03T05:38:29.299Z,2.92
2019-02-03T05:39:29.386Z,2.92
2019-02-03T05:40:29.473Z,3.05
2019-02-03T05:41:29.560Z,2.87
2019-02-03T05:42:29.646Z,2.82
2019-02-03T05:43:29.728Z,2.79
2019-02-03T05:44:29.817Z,2.81
2019-02-03T05:45:29.906Z,2.81
2019-02-03T05:46:29.992Z,2.79
2019-02-03T05:47:30.079Z,2.79
2019-02-03T05:48:30.166Z,2.77
2019-02-03T05:49:30.248Z,2.69
2019-02-03T05:50:30.337Z,2.56
2019-02-03T05:51:30.441Z,2.48
2019-02-03T05:52:30.528Z,2.55
2019-02-03T05:53:30.618Z,2.63
2019-02-03T05:54:30.704Z,2.64
2019-02-03T05:55:30.793Z,2.66
2019-02-03T05:56:30.881Z,2.73
2019-02-03T05:57:30.971Z,2.63
2019-02-03T05:58:31.056Z,2.67
2019-02-03T05:59:31.142Z,2.56
2019-02-03T06:00:31.230Z,2.67
2019-02-03T06:01:31.319Z,2.66
2019-02-03T06:02:31.403Z,2.77
2019-02-03T06:03:31.492Z,2.84
2019-02-03T06:04:31.575Z,2.89
2019-02-03T06:05:31.668Z,2.82
2019-02-03T06:06:31.755Z,2.67
2019-02-03T06:07:31.843Z,2.66
2019-02-03T06:08:31.930Z,2.64
2019-02-03T06:09:36.633Z,2.58
2019-02-03T06:10:32.103Z,2.67
2019-02-03T06:11:32.189Z,2.67
2019-02-03T06:12:32.266Z,2.67
2019-02-03T06:13:32.371Z,2.71
2019-02-03T06:14:32.436Z,2.77
2019-02-03T06:15:32.521Z,2.76
2019-02-03T06:16:32.617Z,2.66
2019-02-03T06:17:32.698Z,2.94
2019-02-03T06:18:32.785Z,2.89
2019-02-03T06:19:32.874Z,2.89
2019-02-03T06:20:32.957Z,2.87
2019-02-03T06:21:33.043Z,2.79
2019-02-03T06:22:33.129Z,2.66
2019-02-03T06:23:33.212Z,2.84
2019-02-03T06:24:33.301Z,2.84
2019-02-03T06:25:33.387Z,2.91
2019-02-03T06:26:33.473Z,2.91
2019-02-03T06:27:33.564Z,3.00
2019-02-03T06:28:33.646Z,2.92
2019-02-03T06:29:33.745Z,2.89
2019-02-03T06:30:33.819Z,3.05
2019-02-03T06:31:33.904Z,3.03
2019-02-03T06:32:33.990Z,2.91
2019-02-03T06:33:34.082Z,2.74
2019-02-03T06:34:34.169Z,2.92
2019-02-03T06:35:34.253Z,2.97
2019-02-03T06:36:34.343Z,2.94
2019-02-03T06:37:34.424Z,2.95
2019-02-03T06:38:34.510Z,2.89
2019-02-03T06:39:34.597Z,2.95
2019-02-03T06:40:34.683Z,2.89
2019-02-03T06:41:34.770Z,2.98
2019-02-03T06:42:34.856Z,2.98
2019-02-03T06:43:34.943Z,3.07
2019-02-03T06:44:35.032Z,3.13
2019-02-03T06:45:35.117Z,3.09
2019-02-03T06:46:35.210Z,3.27
2019-02-03T06:47:35.295Z,3.16
2019-02-03T06:48:35.383Z,3.06
2019-02-03T06:49:35.472Z,3.24
2019-02-03T06:50:35.558Z,3.15
2019-02-03T06:51:35.643Z,3.18
2019-02-03T06:52:35.731Z,3.05
2019-02-03T06:53:35.821Z,3.05
2019-02-03T06:54:35.911Z,2.92
2019-02-03T06:55:35.998Z,3.00
2019-02-03T06:56:36.092Z,2.79
2019-02-03T06:57:36.187Z,2.81
2019-02-03T06:58:36.266Z,2.91
2019-02-03T06:59:36.374Z,3.07
2019-02-03T07:00:36.444Z,3.03
2019-02-03T07:01:36.526Z,3.10
2019-02-03T07:02:36.613Z,3.10
2019-02-03T07:03:36.700Z,3.15
2019-02-03T07:04:36.789Z,3.05
2019-02-03T07:05:36.876Z,2.92
2019-02-03T07:06:36.962Z,3.00
2019-02-03T07:07:37.047Z,3.05
2019-02-03T07:08:37.136Z,2.89
2019-02-03T07:09:37.229Z,2.91
2019-02-03T07:10:37.312Z,2.82
2019-02-03T07:11:37.398Z,2.76
2019-02-03T07:12:37.484Z,2.77
2019-02-03T07:13:37.571Z,2.79
2019-02-03T07:14:37.657Z,2.85
2019-02-03T07:15:37.747Z,2.91
2019-02-03T07:16:41.019Z,2.85
2019-02-03T07:17:37.921Z,2.84
2019-02-03T07:18:38.008Z,2.89
2019-02-03T07:19:38.126Z,2.67
2019-02-03T07:20:38.217Z,2.74
2019-02-03T07:21:38.304Z,2.77
2019-02-03T07:22:38.393Z,2.81
2019-02-03T07:23:38.477Z,2.85
2019-02-03T07:24:38.564Z,3.05
2019-02-03T07:25:38.653Z,3.03
2019-02-03T07:26:38.738Z,3.13
2019-02-03T07:27:38.853Z,3.09
2019-02-03T07:28:38.911Z,3.03
2019-02-03T07:29:39.018Z,2.91
2019-02-03T07:30:39.099Z,2.85
2019-02-03T07:31:39.189Z,2.92
2019-02-03T07:32:39.276Z,3.02
2019-02-03T07:33:39.364Z,3.06
2019-02-03T07:34:39.450Z,3.07
2019-02-03T07:35:39.532Z,3.18
2019-02-03T07:36:39.621Z,3.15
2019-02-03T07:37:39.710Z,3.10
2019-02-03T07:38:39.799Z,3.03
2019-02-03T07:39:39.887Z,3.10
2019-02-03T07:40:39.970Z,2.95
2019-02-03T07:41:40.058Z,2.94
2019-02-03T07:42:40.145Z,2.79
2019-02-03T07:43:40.230Z,2.77
2019-02-03T07:44:40.321Z,2.67
2019-02-03T07:45:40.405Z,2.59
2019-02-03T07:46:40.494Z,2.58
2019-02-03T07:47:40.583Z,2.46
2019-02-03T07:48:40.692Z,2.51
2019-02-03T07:49:40.751Z,2.51
2019-02-03T07:50:40.841Z,2.52
2019-02-03T07:51:40.929Z,2.51
2019-02-03T07:52:41.009Z,2.70
2019-02-03T07:53:41.104Z,2.85
2019-02-03T07:54:41.186Z,2.87
2019-02-03T07:55:41.272Z,3.07
2019-02-03T07:56:41.357Z,2.94
2019-02-03T07:57:41.444Z,2.82
2019-02-03T07:58:41.542Z,2.85
2019-02-03T07:59:41.626Z,2.94
2019-02-03T08:00:41.766Z,2.81
2019-02-03T08:01:41.790Z,2.95
2019-02-03T08:02:41.875Z,2.94
2019-02-03T08:03:41.960Z,3.06
2019-02-03T08:04:42.046Z,3.09
2019-02-03T08:05:42.132Z,3.09
2019-02-03T08:06:42.216Z,3.09
2019-02-03T08:07:42.305Z,3.21
2019-02-03T08:08:42.391Z,3.27
2019-02-03T08:09:42.477Z,3.28
2019-02-03T08:10:42.565Z,3.24
2019-02-03T08:11:42.650Z,3.34
2019-02-03T08:12:42.727Z,3.27
2019-02-03T08:13:42.823Z,3.10
2019-02-03T08:14:42.907Z,3.02
2019-02-03T08:15:42.997Z,2.97
2019-02-03T08:16:43.082Z,2.89
2019-02-03T08:17:43.173Z,2.89
2019-02-03T08:18:43.258Z,3.05
2019-02-03T08:19:43.342Z,3.07
2019-02-03T08:20:43.429Z,3.24
2019-02-03T08:21:43.516Z,3.33
2019-02-03T08:22:43.604Z,3.27
2019-02-03T08:23:43.691Z,3.27
2019-02-03T08:24:43.776Z,3.34
2019-02-03T08:25:43.871Z,3.42
2019-02-03T08:26:43.961Z,3.47
2019-02-03T08:27:44.043Z,3.53
2019-02-03T08:28:44.134Z,3.52
2019-02-03T08:29:44.218Z,3.67
2019-02-03T08:30:44.310Z,3.68
2019-02-03T08:31:44.397Z,3.62
2019-02-03T08:32:44.484Z,3.75
2019-02-03T08:33:44.574Z,3.68
2019-02-03T08:34:44.658Z,3.68
2019-02-03T08:35:44.749Z,3.44
2019-02-03T08:36:44.854Z,3.36
2019-02-03T08:37:44.940Z,3.52
2019-02-03T08:38:45.027Z,3.57
2019-02-03T08:39:45.114Z,3.05
2019-02-03T08:40:45.202Z,3.09
2019-02-03T08:41:45.285Z,3.06
2019-02-03T08:42:45.373Z,3.25
2019-02-03T08:43:45.460Z,3.21
2019-02-03T08:44:45.551Z,3.09
2019-02-03T08:45:45.639Z,3.06
2019-02-03T08:46:45.727Z,3.09
2019-02-03T08:47:45.812Z,3.18
2019-02-03T08:48:45.899Z,3.23
2019-02-03T08:49:45.991Z,3.33
2019-02-03T08:50:46.078Z,3.27
2019-02-03T08:51:46.165Z,3.24
2019-02-03T08:52:46.256Z,3.31
2019-02-03T08:53:46.335Z,3.42
2019-02-03T08:54:57.669Z,3.49
2019-02-03T08:55:46.553Z,3.33
2019-02-03T08:56:46.637Z,3.27
2019-02-03T08:57:46.731Z,3.42
2019-02-03T08:58:46.814Z,3.47
2019-02-03T08:59:46.900Z,3.36
2019-02-03T09:00:46.987Z,3.24
2019-02-03T09:01:47.094Z,3.25
2019-02-03T09:02:47.184Z,3.31
2019-02-03T09:03:47.288Z,3.44
2019-02-03T09:04:47.365Z,3.39
2019-02-03T09:05:47.450Z,3.33
2019-02-03T09:06:47.556Z,3.47
2019-02-03T09:07:47.641Z,3.49
2019-02-03T09:08:47.730Z,3.61
2019-02-03T09:09:47.816Z,3.76
2019-02-03T09:10:48.908Z,3.80
2019-02-03T09:11:47.981Z,3.86
2019-02-03T09:12:48.080Z,3.97
2019-02-03T09:13:48.170Z,3.94
2019-02-03T09:14:48.247Z,3.90
2019-02-03T09:15:48.443Z,3.75
2019-02-03T09:16:48.504Z,3.76
2019-02-03T09:17:48.531Z,3.76
2019-02-03T09:18:48.621Z,3.67
2019-02-03T09:19:48.832Z,3.42
2019-02-03T09:20:48.795Z,3.24
2019-02-03T09:21:48.882Z,3.42
2019-02-03T09:22:48.973Z,3.20
2019-02-03T09:23:49.064Z,3.43
2019-02-03T09:24:49.150Z,3.44
2019-02-03T09:25:49.236Z,3.52
2019-02-03T09:26:49.342Z,3.43
2019-02-03T09:27:49.426Z,3.50
2019-02-03T09:28:49.511Z,3.57
2019-02-03T09:29:49.602Z,3.72
2019-02-03T09:30:49.682Z,3.79
2019-02-03T09:31:49.769Z,3.86
2019-02-03T09:32:49.860Z,3.97
2019-02-03T09:33:49.950Z,3.90
2019-02-03T09:34:50.033Z,3.98
2019-02-03T09:35:50.118Z,3.82
2019-02-03T09:36:50.209Z,3.68
2019-02-03T09:37:50.295Z,3.80
2019-02-03T09:38:50.380Z,3.96
2019-02-03T09:39:50.464Z,3.94
2019-02-03T09:40:59.701Z,4.12
2019-02-03T09:41:50.644Z,4.08
2019-02-03T09:42:50.751Z,4.08
2019-02-03T09:43:50.839Z,3.97
2019-02-03T09:44:50.931Z,3.76
2019-02-03T09:45:51.018Z,3.90
2019-02-03T09:46:51.106Z,3.88
2019-02-03T09:47:51.192Z,4.01
2019-02-03T09:48:51.281Z,4.19
2019-02-03T09:49:51.366Z,4.37
2019-02-03T09:50:51.461Z,4.01
2019-02-03T09:51:51.546Z,4.07
2019-02-03T09:52:51.633Z,4.03
2019-02-03T09:53:51.719Z,4.14
2019-02-03T09:54:51.804Z,4.16
2019-02-03T09:55:51.895Z,4.36
2019-02-03T09:56:51.983Z,4.50
2019-02-03T09:57:52.096Z,4.59
2019-02-03T09:58:52.187Z,4.39
2019-02-03T09:59:52.279Z,4.59
2019-02-03T10:00:52.361Z,4.69
2019-02-03T10:01:52.446Z,4.65
2019-02-03T10:02:52.529Z,4.83
2019-02-03T10:03:52.615Z,4.80
2019-02-03T10:04:52.709Z,4.83
2019-02-03T10:05:52.795Z,4.89
2019-02-03T10:06:52.881Z,4.94
2019-02-03T10:07:52.967Z,5.09
2019-02-03T10:08:53.055Z,4.99
2019-02-03T10:09:53.141Z,4.70
2019-02-03T10:10:53.232Z,4.80
2019-02-03T10:11:53.325Z,4.98
2019-02-03T10:12:53.412Z,4.96
2019-02-03T10:13:53.503Z,5.05
2019-02-03T10:14:53.591Z,5.05
2019-02-03T10:15:53.685Z,4.67
2019-02-03T10:16:53.760Z,4.37
2019-02-03T10:17:53.854Z,4.14
2019-02-03T10:18:53.942Z,4.15
2019-02-03T10:19:54.026Z,4.07
2019-02-03T10:20:54.125Z,4.07
2019-02-03T10:21:54.209Z,4.24
2019-02-03T10:22:54.290Z,4.33
2019-02-03T10:23:54.379Z,4.54
2019-02-03T10:24:54.468Z,4.59
2019-02-03T10:25:55.450Z,4.70
2019-02-03T10:26:54.766Z,4.57
2019-02-03T10:27:54.738Z,4.58
2019-02-03T10:28:54.844Z,4.59
2019-02-03T10:29:55.032Z,4.57
2019-02-03T10:30:55.020Z,4.58
2019-02-03T10:31:55.107Z,4.46
2019-02-03T10:32:55.221Z,4.59
2019-02-03T10:33:55.284Z,4.61
2019-02-03T10:34:55.373Z,4.79
2019-02-03T10:35:55.465Z,4.64
2019-02-03T10:36:55.550Z,4.57
2019-02-03T10:37:55.642Z,4.65
2019-02-03T10:38:55.728Z,4.55
2019-02-03T10:39:55.817Z,4.50
2019-02-03T10:40:55.912Z,4.37
2019-02-03T10:41:55.994Z,4.44
2019-02-03T10:42:56.101Z,4.59
2019-02-03T10:43:56.519Z,4.44
2019-02-03T10:44:56.282Z,4.46
2019-02-03T10:45:56.370Z,4.37
2019-02-03T10:46:56.579Z,4.19
2019-02-03T10:47:56.548Z,4.08
2019-02-03T10:48:56.634Z,4.04
2019-02-03T10:49:56.724Z,4.03
2019-02-03T10:50:56.816Z,4.22
2019-02-03T10:51:56.901Z,4.28
2019-02-03T10:52:57.001Z,4.37
2019-02-03T10:53:57.095Z,4.26
2019-02-03T10:54:57.180Z,4.28
2019-02-03T10:55:57.268Z,4.24
2019-02-03T10:56:57.356Z,4.37
2019-02-03T10:57:57.447Z,4.46
2019-02-03T10:58:57.536Z,4.54
2019-02-03T10:59:57.621Z,4.58
2019-02-03T11:00:57.710Z,4.69
2019-02-03T11:01:57.800Z,4.83
2019-02-03T11:02:57.887Z,4.91
2019-02-03T11:03:57.974Z,5.10
2019-02-03T11:04:58.061Z,5.14
2019-02-03T11:05:59.500Z,5.20
2019-02-03T11:06:58.240Z,5.22
2019-02-03T11:07:58.326Z,5.14
2019-02-03T11:08:58.415Z,5.02
2019-02-03T11:09:58.503Z,5.05
2019-02-03T11:10:58.591Z,5.12
2019-02-03T11:11:58.682Z,5.04
2019-02-03T11:12:58.777Z,5.12
2019-02-03T11:13:58.858Z,4.77
2019-02-03T11:14:58.946Z,4.57
2019-02-03T11:15:59.035Z,4.75
2019-02-03T11:16:59.124Z,4.55
2019-02-03T11:17:59.211Z,4.64
2019-02-03T11:18:59.308Z,4.52
2019-02-03T11:19:59.392Z,4.42
2019-02-03T11:20:59.481Z,4.55
2019-02-03T11:21:59.570Z,4.37
2019-02-03T11:22:59.660Z,4.18
2019-02-03T11:23:59.747Z,4.22
2019-02-03T11:24:59.833Z,4.25
2019-02-03T11:26:00.305Z,4.21
2019-02-03T11:27:00.001Z,3.90
2019-02-03T11:28:00.088Z,3.90
2019-02-03T11:29:00.172Z,3.97
2019-02-03T11:30:00.325Z,4.07
2019-02-03T11:31:00.347Z,4.24
2019-02-03T11:32:00.435Z,4.26
2019-02-03T11:33:06.941Z,4.21
2019-02-03T11:34:00.612Z,4.22
2019-02-03T11:35:00.701Z,4.29
2019-02-03T11:36:00.791Z,4.19
2019-02-03T11:37:00.881Z,4.33
2019-02-03T11:38:00.967Z,4.50
2019-02-03T11:39:01.055Z,4.58
2019-02-03T11:40:01.144Z,4.75
2019-02-03T11:41:01.237Z,4.72
2019-02-03T11:42:01.317Z,4.62
2019-02-03T11:43:01.406Z,4.28
2019-02-03T11:44:01.489Z,4.21
2019-02-03T11:45:01.580Z,4.32
2019-02-03T11:46:01.667Z,4.46
2019-02-03T11:47:01.753Z,4.58
2019-02-03T11:48:01.851Z,4.70
2019-02-03T11:49:01.932Z,4.79
2019-02-03T11:50:02.014Z,4.99
2019-02-03T11:51:02.099Z,4.96
2019-02-03T11:52:02.188Z,4.79
2019-02-03T11:53:02.278Z,4.54
2019-02-03T11:54:02.367Z,4.58
2019-02-03T11:55:02.454Z,4.43
2019-02-03T11:56:02.541Z,4.36
2019-02-03T11:57:02.632Z,4.37
2019-02-03T11:58:02.720Z,4.22
2019-02-03T11:59:02.809Z,4.14
2019-02-03T12:00:02.901Z,4.12
2019-02-03T12:01:02.982Z,4.14
2019-02-03T12:02:03.074Z,4.36
2019-02-03T12:03:03.154Z,4.40
2019-02-03T12:04:03.252Z,4.57
2019-02-03T12:05:03.349Z,4.50
2019-02-03T12:06:03.451Z,4.33
2019-02-03T12:07:03.527Z,4.40
2019-02-03T12:08:03.617Z,4.46
2019-02-03T12:09:03.710Z,4.59
2019-02-03T12:10:03.807Z,4.34
2019-02-03T12:11:03.960Z,4.34
2019-02-03T12:12:03.989Z,4.39
2019-02-03T12:13:04.079Z,4.54
2019-02-03T12:14:04.400Z,4.18
2019-02-03T12:15:04.251Z,4.00
2019-02-03T12:16:04.382Z,4.04
2019-02-03T12:17:04.490Z,4.10
2019-02-03T12:18:04.574Z,4.10
2019-02-03T12:19:04.665Z,4.18
2019-02-03T12:20:04.752Z,4.10
2019-02-03T12:21:04.843Z,4.04
2019-02-03T12:22:04.933Z,3.97
2019-02-03T12:23:05.026Z,3.96
2019-02-03T12:24:05.183Z,4.12
2019-02-03T12:25:05.243Z,4.12
2019-02-03T12:26:06.925Z,4.07
2019-02-03T12:27:05.419Z,4.14
2019-02-03T12:28:05.538Z,4.40
2019-02-03T12:29:05.590Z,4.47
2019-02-03T12:30:05.678Z,4.65
2019-02-03T12:31:05.779Z,4.75
2019-02-03T12:32:05.927Z,4.57
2019-02-03T12:33:06.042Z,4.37
2019-02-03T12:34:06.220Z,4.26
2019-02-03T12:35:07.092Z,4.26
2019-02-03T12:36:07.100Z,4.39
2019-02-03T12:37:06.444Z,4.36
2019-02-03T12:38:06.547Z,4.50
2019-02-03T12:39:06.647Z,4.50
2019-02-03T12:40:06.717Z,4.44
2019-02-03T12:41:06.799Z,4.54
2019-02-03T12:42:13.020Z,4.61
2019-02-03T12:43:06.992Z,4.73
2019-02-03T12:44:07.077Z,4.84
2019-02-03T12:45:07.169Z,4.96
2019-02-03T12:46:07.262Z,5.05
2019-02-03T12:47:07.350Z,5.13
2019-02-03T12:48:07.443Z,5.14
2019-02-03T12:49:07.604Z,5.09
2019-02-03T12:50:07.665Z,4.92
2019-02-03T12:51:07.755Z,4.75
2019-02-03T12:52:07.846Z,4.73
2019-02-03T12:53:07.931Z,4.64
2019-02-03T12:54:08.020Z,4.64
2019-02-03T12:55:08.110Z,4.52
2019-02-03T12:56:08.201Z,4.58
2019-02-03T12:57:08.288Z,4.52
2019-02-03T12:58:08.383Z,4.54
2019-02-03T12:59:08.473Z,4.75
2019-02-03T13:00:08.564Z,4.84
2019-02-03T13:01:08.659Z,4.83
2019-02-03T13:02:08.747Z,4.55
2019-02-03T13:03:08.837Z,4.51
2019-02-03T13:04:08.928Z,4.37
2019-02-03T13:05:09.033Z,4.42
2019-02-03T13:06:09.121Z,4.59
2019-02-03T13:07:09.235Z,4.36
2019-02-03T13:08:10.047Z,4.24
2019-02-03T13:09:09.393Z,4.24
2019-02-03T13:10:16.439Z,4.07
2019-02-03T13:11:09.572Z,4.15
2019-02-03T13:12:09.666Z,4.24
2019-02-03T13:13:09.757Z,4.25
2019-02-03T13:14:09.848Z,4.34
2019-02-03T13:15:09.942Z,4.44
2019-02-03T13:16:10.059Z,4.50
2019-02-03T13:17:10.150Z,4.61
2019-02-03T13:18:10.260Z,4.72
2019-02-03T13:19:10.358Z,4.25
2019-02-03T13:20:10.447Z,4.19